Pensacola Regional Airport
KPNS : now visible

Airfield :











YOU CAN JOIN US ON...

 
LOGIN :

Register | Disclaimer

   EN    FR    IT 

 









Legend :    VFR   Marginal VFR   IFR   Intensive IFR   Very Intensive IFR
Visi :
Ceiling :
>= 8 km
>= 3000ft
5 to 8 km
1000 to 3000 ft
1500m to 5 km
500 to 1000 ft
800 to 1500m
200 to 500 ft
< 800m
< 200 ft
Symbols :   Thunderstorms  Fog  Heavy snow  Heavy precipitations  Wind > 20 kt







- Airport Elevation : 121 ft
- IATA code : PNS


KPNS - Pensacola Regional

CURRENT METAR :
  • 201653Z 00000KT 10SM -RA BKN039 BKN046 OVC075 25/24 A3012 RMK AO2 SLP199 P0013 T02500244 $

EXPIRED METARs :
  • 201624Z 00000KT 3SM RA BR OVC060 24/24 A3012 RMK AO2 LTG DSNT N P0012 T02440244 $
  • 201604Z 00000KT 1 3/4SM +RA BR BKN060 OVC080 23/23 A3011 RMK AO2 LTG DSNT N P0004 T02330233 $
  • 201553Z 36003KT 3SM RA BR BKN055 OVC075 23/23 A3012 RMK AO2 LTG DSNT N TSE13 SLP200 P0056 T02330233 $
  • 201539Z 09004KT 2 1/2SM +RA BR BKN050 OVC070 23/23 A3012 RMK AO2 LTG DSNT N TSE13 P0052 T02280228 $
  • 201530Z 10007KT 1 3/4SM +RA BR FEW005 OVC048 23/23 A3012 RMK AO2 LTG DSNT N TSE13 P0046 T02280228 $
  • 201519Z 11008KT 1 1/2SM VCTS +RA BR FEW006 BKN038 OVC050 24/24 A3012 RMK AO2 LTG DSNT N TSE13 P0035 T02390239 $
  • 201507Z 13010KT 1 1/4SM +TSRA BR SCT008 BKN035 OVC060 24/24 A3012 RMK AO2 P0021 T02390239 $
  • 201453Z 14012KT 1SM R17/5500VP6000FT +TSRA BR FEW010 BKN037 OVC044 24/24 A3011 RMK AO2 RAB1357 TSB1356E11B14 SLP198 P0027 60027 T02390239 51010 $

TAF KPNS
Valid from the 20 at 18:00 until the 21 at 18:00 UTC


201727Z 2018/2118 19006KT P6SM SHRA SCT030 OVC100
FM202200 24005KT P6SM VCSH SCT040 BKN250
FM210600 05002KT P6SM BKN040 BKN250
KZJX FIR / North America



MET'MAP, your aeronautical weather chart ! - Copyright ORBIFLY December 2007 - Disclaimer

ORBIFLY MET'MAP TEAM :

Programming & Development : Alexandra Zaïnal
Concept & Development : Baudouin d'Aumeries
Co-Development & Prog : Marc-Olivier Méhu
Technical & hardware support : Manuel Goepfert

Contact : metmap@orbifly.com




SOURCES & CREDITS :

   NOAA       Earth
Advisory